Aviation Digital Data Service (ADDS)

Output produced by TAFs form (1134 UTC 01 July 2016)
found at http://www.aviationweather.gov/adds/tafs/
 
KALB 010531Z 0106/0206 00000KT P6SM SKC 
     FM010900 VRB03KT P6SM SCT080 
     FM011300 18006KT P6SM SCT080 BKN250 
     FM011500 18010G16KT P6SM SCT050 BKN080 BKN250 
     FM012000 19012G20KT 5SM -SHRA BR SCT025 BKN050 OVC100 
     PROB30 0120/0201 3SM TSRA BR BKN025CB OVC050 
     FM020300 25007KT P6SM BKN050 BKN100